sensor_id;sensor_type;location;lat;lon;timestamp;pressure;altitude;pressure_sealevel;temperature;humidity
61119;BME280;51448;51.660;5.824;2022-10-10T00:01:34;101412.31;;;8.31;76.85
61119;BME280;51448;51.660;5.824;2022-10-10T00:04:03;101406.22;;;8.27;77.01
61119;BME280;51448;51.660;5.824;2022-10-10T00:06:32;101410.59;;;8.27;76.63
61119;BME280;51448;51.660;5.824;2022-10-10T00:09:00;101399.28;;;8.22;76.94
61119;BME280;51448;51.660;5.824;2022-10-10T00:11:29;101400.19;;;8.18;76.95
61119;BME280;51448;51.660;5.824;2022-10-10T00:13:57;101392.34;;;8.16;77.49
61119;BME280;51448;51.660;5.824;2022-10-10T00:16:24;101401.09;;;8.14;77.37
61119;BME280;51448;51.660;5.824;2022-10-10T00:18:52;101402.00;;;8.13;77.98
61119;BME280;51448;51.660;5.824;2022-10-10T00:21:19;101405.47;;;8.12;78.01
61119;BME280;51448;51.660;5.824;2022-10-10T00:23:47;101399.38;;;8.10;78.00
61119;BME280;51448;51.660;5.824;2022-10-10T00:26:14;101402.91;;;8.07;78.06
61119;BME280;51448;51.660;5.824;2022-10-10T00:28:46;101391.56;;;8.05;78.11
61119;BME280;51448;51.660;5.824;2022-10-10T00:31:14;101395.09;;;8.02;78.49
61119;BME280;51448;51.660;5.824;2022-10-10T00:33:42;101388.09;;;8.01;78.07
61119;BME280;51448;51.660;5.824;2022-10-10T00:36:10;101393.38;;;8.00;78.29
61119;BME280;51448;51.660;5.824;2022-10-10T00:38:37;101388.13;;;7.98;78.58
61119;BME280;51448;51.660;5.824;2022-10-10T00:41:05;101389.00;;;7.97;78.82
61119;BME280;51448;51.660;5.824;2022-10-10T00:43:33;101377.69;;;7.95;78.91
61119;BME280;51448;51.660;5.824;2022-10-10T00:46:01;101388.19;;;7.94;79.19
61119;BME280;51448;51.660;5.824;2022-10-10T00:48:29;101385.56;;;7.92;78.73
61119;BME280;51448;51.660;5.824;2022-10-10T00:51:07;101383.84;;;7.90;78.82
61119;BME280;51448;51.660;5.824;2022-10-10T00:53:41;101383.84;;;7.90;79.36
61119;BME280;51448;51.660;5.824;2022-10-10T00:56:14;101377.75;;;7.88;79.36
61119;BME280;51448;51.660;5.824;2022-10-10T00:58:47;101383.88;;;7.88;79.84
61119;BME280;51448;51.660;5.824;2022-10-10T01:01:19;101383.00;;;7.86;79.53
61119;BME280;51448;51.660;5.824;2022-10-10T01:03:47;101377.78;;;7.83;80.09
61119;BME280;51448;51.660;5.824;2022-10-10T01:06:15;101375.19;;;7.81;80.07
61119;BME280;51448;51.660;5.824;2022-10-10T01:08:43;101375.19;;;7.81;80.01
61119;BME280;51448;51.660;5.824;2022-10-10T01:17:26;101356.06;;;7.73;79.76
61119;BME280;51448;51.660;5.824;2022-10-10T01:35:24;101358.78;;;7.56;80.29
61119;BME280;51448;51.660;5.824;2022-10-10T01:41:16;101352.72;;;7.50;80.86
61119;BME280;51448;51.660;5.824;2022-10-10T01:43:53;101343.16;;;7.47;81.36
61119;BME280;51448;51.660;5.824;2022-10-10T01:46:22;101349.25;;;7.48;81.09
61119;BME280;51448;51.660;5.824;2022-10-10T01:48:53;101341.41;;;7.48;81.41
61119;BME280;51448;51.660;5.824;2022-10-10T01:51:46;101343.16;;;7.47;80.96
61119;BME280;51448;51.660;5.824;2022-10-10T01:57:17;101343.16;;;7.44;81.53
61119;BME280;51448;51.660;5.824;2022-10-10T02:05:30;101324.03;;;7.36;81.37
61119;BME280;51448;51.660;5.824;2022-10-10T02:08:17;101329.28;;;7.34;81.61
61119;BME280;51448;51.660;5.824;2022-10-10T02:10:55;101326.69;;;7.33;81.72
61119;BME280;51448;51.660;5.824;2022-10-10T02:13:33;101316.22;;;7.30;81.94
61119;BME280;51448;51.660;5.824;2022-10-10T02:16:08;101310.13;;;7.29;81.79
61119;BME280;51448;51.660;5.824;2022-10-10T02:18:46;101312.75;;;7.28;81.85
61119;BME280;51448;51.660;5.824;2022-10-10T02:21:17;101313.63;;;7.25;81.83
61119;BME280;51448;51.660;5.824;2022-10-10T02:23:47;101308.41;;;7.23;81.79
61119;BME280;51448;51.660;5.824;2022-10-10T02:26:17;101311.06;;;7.19;81.85
61119;BME280;51448;51.660;5.824;2022-10-10T02:29:08;101304.97;;;7.18;81.50
61119;BME280;51448;51.660;5.824;2022-10-10T02:31:53;101298.88;;;7.13;81.85
61119;BME280;51448;51.660;5.824;2022-10-10T02:34:36;101301.53;;;7.10;81.83
61119;BME280;51448;51.660;5.824;2022-10-10T02:37:13;101303.28;;;7.08;82.36
61119;BME280;51448;51.660;5.824;2022-10-10T02:39:46;101310.28;;;7.06;82.38
61119;BME280;51448;51.660;5.824;2022-10-10T02:42:20;101308.53;;;7.07;82.78
61119;BME280;51448;51.660;5.824;2022-10-10T02:44:50;101302.44;;;7.06;82.74
61119;BME280;51448;51.660;5.824;2022-10-10T02:47:18;101304.19;;;7.05;82.70
61119;BME280;51448;51.660;5.824;2022-10-10T02:49:46;101293.72;;;7.05;83.09
61119;BME280;51448;51.660;5.824;2022-10-10T02:52:15;101300.69;;;7.05;83.25
61119;BME280;51448;51.660;5.824;2022-10-10T02:54:43;101299.81;;;7.06;83.02
61119;BME280;51448;51.660;5.824;2022-10-10T02:57:11;101286.75;;;7.04;83.38
61119;BME280;51448;51.660;5.824;2022-10-10T02:59:38;101291.09;;;7.04;83.42
61119;BME280;51448;51.660;5.824;2022-10-10T03:02:06;101278.03;;;7.02;83.86
61119;BME280;51448;51.660;5.824;2022-10-10T03:04:35;101281.50;;;7.03;83.66
61119;BME280;51448;51.660;5.824;2022-10-10T03:07:03;101280.66;;;7.02;83.98
61119;BME280;51448;51.660;5.824;2022-10-10T03:09:32;101275.41;;;7.01;84.14
61119;BME280;51448;51.660;5.824;2022-10-10T03:11:59;101273.69;;;7.01;84.14
61119;BME280;51448;51.660;5.824;2022-10-10T03:14:27;101278.94;;;7.00;84.30
61119;BME280;51448;51.660;5.824;2022-10-10T03:16:54;101278.06;;;6.99;84.43
61119;BME280;51448;51.660;5.824;2022-10-10T03:19:22;101273.69;;;6.98;84.40
61119;BME280;51448;51.660;5.824;2022-10-10T03:21:49;101275.47;;;6.98;84.28
61119;BME280;51448;51.660;5.824;2022-10-10T03:24:17;101269.38;;;6.97;84.58
61119;BME280;51448;51.660;5.824;2022-10-10T03:26:45;101272.84;;;6.96;84.70
61119;BME280;51448;51.660;5.824;2022-10-10T03:29:14;101266.75;;;6.96;84.66
61119;BME280;51448;51.660;5.824;2022-10-10T03:31:42;101265.00;;;6.95;84.72
61119;BME280;51448;51.660;5.824;2022-10-10T03:34:09;101265.03;;;6.93;84.71
61119;BME280;51448;51.660;5.824;2022-10-10T03:36:37;101269.38;;;6.93;84.98
61119;BME280;51448;51.660;5.824;2022-10-10T03:39:04;101269.41;;;6.90;85.20
61119;BME280;51448;51.660;5.824;2022-10-10T03:41:34;101271.16;;;6.89;84.62
61119;BME280;51448;51.660;5.824;2022-10-10T03:44:02;101270.25;;;6.89;85.05
61119;BME280;51448;51.660;5.824;2022-10-10T03:46:30;101273.78;;;6.88;85.19
61119;BME280;51448;51.660;5.824;2022-10-10T03:48:57;101264.19;;;6.87;85.22
61119;BME280;51448;51.660;5.824;2022-10-10T03:51:26;101264.22;;;6.85;85.58
61119;BME280;51448;51.660;5.824;2022-10-10T03:53:53;101262.44;;;6.84;85.41
61119;BME280;51448;51.660;5.824;2022-10-10T03:56:21;101267.69;;;6.85;85.66
61119;BME280;51448;51.660;5.824;2022-10-10T03:58:48;101265.06;;;6.85;85.72
61119;BME280;51448;51.660;5.824;2022-10-10T04:01:16;101265.97;;;6.81;85.47
61119;BME280;51448;51.660;5.824;2022-10-10T04:03:43;101265.97;;;6.80;85.53
61119;BME280;51448;51.660;5.824;2022-10-10T04:06:17;101264.25;;;6.79;86.12
61119;BME280;51448;51.660;5.824;2022-10-10T04:08:46;101269.44;;;6.80;86.19
61119;BME280;51448;51.660;5.824;2022-10-10T04:11:13;101263.34;;;6.81;86.40
61119;BME280;51448;51.660;5.824;2022-10-10T04:13:41;101268.56;;;6.81;86.23
61119;BME280;51448;51.660;5.824;2022-10-10T04:16:08;101272.91;;;6.84;86.22
61119;BME280;51448;51.660;5.824;2022-10-10T04:18:36;101265.06;;;6.85;86.54
61119;BME280;51448;51.660;5.824;2022-10-10T04:21:04;101258.09;;;6.88;86.72
61119;BME280;51448;51.660;5.824;2022-10-10T04:23:32;101266.78;;;6.91;86.88
61119;BME280;51448;51.660;5.824;2022-10-10T04:26:00;101266.75;;;6.94;87.21
61119;BME280;51448;51.660;5.824;2022-10-10T04:28:27;101258.91;;;6.97;87.12
61119;BME280;51448;51.660;5.824;2022-10-10T04:30:56;101266.72;;;6.99;87.23
61119;BME280;51448;51.660;5.824;2022-10-10T04:33:23;101261.47;;;7.02;87.21
61119;BME280;51448;51.660;5.824;2022-10-10T04:35:51;101252.75;;;7.03;87.29
61119;BME280;51448;51.660;5.824;2022-10-10T04:38:19;101258.81;;;7.05;87.20
61119;BME280;51448;51.660;5.824;2022-10-10T04:40:48;101256.22;;;7.05;87.36
61119;BME280;51448;51.660;5.824;2022-10-10T04:43:17;101254.50;;;7.05;87.27
61119;BME280;51448;51.660;5.824;2022-10-10T04:45:46;101257.97;;;7.06;87.51
61119;BME280;51448;51.660;5.824;2022-10-10T04:48:13;101260.53;;;7.09;87.48
61119;BME280;51448;51.660;5.824;2022-10-10T04:50:41;101252.69;;;7.09;87.50
61119;BME280;51448;51.660;5.824;2022-10-10T04:53:09;101254.44;;;7.12;87.46
61119;BME280;51448;51.660;5.824;2022-10-10T04:55:37;101254.44;;;7.10;87.40
61119;BME280;51448;51.660;5.824;2022-10-10T04:58:05;101254.44;;;7.10;87.42
61119;BME280;51448;51.660;5.824;2022-10-10T05:00:32;101246.59;;;7.10;87.65
61119;BME280;51448;51.660;5.824;2022-10-10T05:03:00;101257.94;;;7.09;87.53
61119;BME280;51448;51.660;5.824;2022-10-10T05:05:27;101258.81;;;7.08;87.50
61119;BME280;51448;51.660;5.824;2022-10-10T05:07:55;101250.97;;;7.08;87.85
61119;BME280;51448;51.660;5.824;2022-10-10T05:10:23;101257.06;;;7.09;87.79
61119;BME280;51448;51.660;5.824;2022-10-10T05:12:51;101257.06;;;7.07;87.79
61119;BME280;51448;51.660;5.824;2022-10-10T05:15:19;101259.72;;;7.05;87.85
61119;BME280;51448;51.660;5.824;2022-10-10T05:17:52;101254.50;;;7.02;87.72
61119;BME280;51448;51.660;5.824;2022-10-10T05:20:20;101256.25;;;7.02;87.80
61119;BME280;51448;51.660;5.824;2022-10-10T05:22:48;101251.91;;;6.99;87.80
61119;BME280;51448;51.660;5.824;2022-10-10T05:25:16;101257.16;;;6.98;87.90
61119;BME280;51448;51.660;5.824;2022-10-10T05:27:43;101253.66;;;6.96;88.05
61119;BME280;51448;51.660;5.824;2022-10-10T05:30:11;101246.69;;;6.96;88.03
61119;BME280;51448;51.660;5.824;2022-10-10T05:32:40;101257.16;;;6.95;88.13
61119;BME280;51448;51.660;5.824;2022-10-10T05:35:08;101252.81;;;6.94;88.13
61119;BME280;51448;51.660;5.824;2022-10-10T05:37:36;101257.16;;;6.95;88.69
61119;BME280;51448;51.660;5.824;2022-10-10T05:40:04;101260.66;;;6.95;88.80
61119;BME280;51448;51.660;5.824;2022-10-10T05:42:38;101251.91;;;6.95;88.74
61119;BME280;51448;51.660;5.824;2022-10-10T05:45:05;101253.66;;;6.96;88.71
61119;BME280;51448;51.660;5.824;2022-10-10T05:47:33;101251.91;;;6.96;88.70
61119;BME280;51448;51.660;5.824;2022-10-10T05:50:01;101254.53;;;6.98;88.79
61119;BME280;51448;51.660;5.824;2022-10-10T05:52:28;101255.41;;;6.97;89.24
61119;BME280;51448;51.660;5.824;2022-10-10T05:54:55;101257.16;;;6.96;89.15
61119;BME280;51448;51.660;5.824;2022-10-10T05:57:25;101258.03;;;6.95;88.95
61119;BME280;51448;51.660;5.824;2022-10-10T05:59:53;101258.03;;;6.94;89.41
61119;BME280;51448;51.660;5.824;2022-10-10T06:02:21;101252.81;;;6.94;89.27
61119;BME280;51448;51.660;5.824;2022-10-10T06:04:49;101253.69;;;6.94;89.26
61119;BME280;51448;51.660;5.824;2022-10-10T06:07:19;101258.91;;;6.94;89.31
61119;BME280;51448;51.660;5.824;2022-10-10T06:09:46;101246.69;;;6.95;90.00
61119;BME280;51448;51.660;5.824;2022-10-10T06:12:16;101251.91;;;6.96;89.79
61119;BME280;51448;51.660;5.824;2022-10-10T06:14:46;101246.69;;;6.96;89.63
61119;BME280;51448;51.660;5.824;2022-10-10T06:17:13;101255.41;;;6.98;89.86
61119;BME280;51448;51.660;5.824;2022-10-10T06:19:41;101257.13;;;7.01;90.00
61119;BME280;51448;51.660;5.824;2022-10-10T06:22:11;101257.97;;;7.03;90.26
61119;BME280;51448;51.660;5.824;2022-10-10T06:24:38;101257.09;;;7.05;89.80
61119;BME280;51448;51.660;5.824;2022-10-10T06:27:07;101264.06;;;7.08;90.15
61119;BME280;51448;51.660;5.824;2022-10-10T06:29:35;101267.53;;;7.10;90.15
61119;BME280;51448;51.660;5.824;2022-10-10T06:32:02;101271.00;;;7.14;90.49
61119;BME280;51448;51.660;5.824;2022-10-10T06:34:30;101274.44;;;7.17;90.52
61119;BME280;51448;51.660;5.824;2022-10-10T06:36:57;101272.69;;;7.22;90.85
61119;BME280;51448;51.660;5.824;2022-10-10T06:39:24;101277.88;;;7.29;90.60
61119;BME280;51448;51.660;5.824;2022-10-10T06:41:52;101267.34;;;7.33;90.62
61119;BME280;51448;51.660;5.824;2022-10-10T06:44:20;101274.28;;;7.39;90.72
61119;BME280;51448;51.660;5.824;2022-10-10T06:46:47;101275.09;;;7.47;90.58
61119;BME280;51448;51.660;5.824;2022-10-10T06:49:15;101275.06;;;7.53;90.51
61119;BME280;51448;51.660;5.824;2022-10-10T06:51:42;101283.72;;;7.60;90.47
61119;BME280;51448;51.660;5.824;2022-10-10T06:54:10;101282.81;;;7.64;90.36
61119;BME280;51448;51.660;5.824;2022-10-10T06:56:38;101281.88;;;7.70;90.74
61119;BME280;51448;51.660;5.824;2022-10-10T06:59:05;101283.59;;;7.75;90.64
61119;BME280;51448;51.660;5.824;2022-10-10T07:01:33;101280.91;;;7.81;91.13
61119;BME280;51448;51.660;5.824;2022-10-10T07:04:00;101276.47;;;7.88;90.80
61119;BME280;51448;51.660;5.824;2022-10-10T07:06:28;101280.75;;;7.95;90.70
61119;BME280;51448;51.660;5.824;2022-10-10T07:09:01;101279.81;;;8.02;91.43
61119;BME280;51448;51.660;5.824;2022-10-10T07:11:28;101284.09;;;8.11;91.00
61119;BME280;51448;51.660;5.824;2022-10-10T07:13:56;101279.63;;;8.21;91.75
61119;BME280;51448;51.660;5.824;2022-10-10T07:16:23;101286.44;;;8.34;91.61
61119;BME280;51448;51.660;5.824;2022-10-10T07:18:51;101282.84;;;8.48;91.80
61119;BME280;51448;51.660;5.824;2022-10-10T07:21:18;101282.69;;;8.60;91.95
61119;BME280;51448;51.660;5.824;2022-10-10T07:23:46;101278.16;;;8.71;92.40
61119;BME280;51448;51.660;5.824;2022-10-10T07:26:16;101289.34;;;8.85;92.60
61119;BME280;51448;51.660;5.824;2022-10-10T07:28:48;101290.06;;;8.98;92.54
61119;BME280;51448;51.660;5.824;2022-10-10T07:31:16;101291.63;;;9.10;92.25
61119;BME280;51448;51.660;5.824;2022-10-10T07:33:47;101287.94;;;9.22;91.84
61119;BME280;51448;51.660;5.824;2022-10-10T07:36:17;101295.66;;;9.33;92.30
61119;BME280;51448;51.660;5.824;2022-10-10T07:38:48;101295.47;;;9.45;92.82
61119;BME280;51448;51.660;5.824;2022-10-10T07:41:18;101293.53;;;9.56;92.76
61119;BME280;51448;51.660;5.824;2022-10-10T07:43:47;101296.84;;;9.67;92.80
61119;BME280;51448;51.660;5.824;2022-10-10T07:46:20;101294.91;;;9.79;93.11
61119;BME280;51448;51.660;5.824;2022-10-10T07:48:48;101306.91;;;9.92;93.12
61119;BME280;51448;51.660;5.824;2022-10-10T07:51:16;101308.47;;;10.04;93.33
61119;BME280;51448;51.660;5.824;2022-10-10T07:53:43;101314.34;;;10.18;92.63
61119;BME280;51448;51.660;5.824;2022-10-10T07:56:11;101308.03;;;10.30;92.92
61119;BME280;51448;51.660;5.824;2022-10-10T07:58:38;101315.66;;;10.44;93.03
61119;BME280;51448;51.660;5.824;2022-10-10T08:01:09;101309.19;;;10.59;93.13
61119;BME280;51448;51.660;5.824;2022-10-10T08:03:39;101313.28;;;10.74;92.46
61119;BME280;51448;51.660;5.824;2022-10-10T08:06:09;101313.81;;;10.90;92.56
61119;BME280;51448;51.660;5.824;2022-10-10T08:08:40;101318.81;;;11.02;92.99
61119;BME280;51448;51.660;5.824;2022-10-10T08:11:19;101323.72;;;11.17;92.10
61119;BME280;51448;51.660;5.824;2022-10-10T08:13:48;101326.00;;;11.33;91.59
61119;BME280;51448;51.660;5.824;2022-10-10T08:16:16;101321.25;;;11.48;91.93
61119;BME280;51448;51.660;5.824;2022-10-10T08:18:45;101315.63;;;11.62;91.59
61119;BME280;51448;51.660;5.824;2022-10-10T08:21:13;101313.59;;;11.74;90.86
61119;BME280;51448;51.660;5.824;2022-10-10T08:23:42;101323.72;;;11.92;90.41
61119;BME280;51448;51.660;5.824;2022-10-10T08:26:12;101319.75;;;12.10;90.65
61119;BME280;51448;51.660;5.824;2022-10-10T08:28:41;101325.44;;;12.26;90.47
61119;BME280;51448;51.660;5.824;2022-10-10T08:31:12;101328.53;;;12.42;90.17
61119;BME280;51448;51.660;5.824;2022-10-10T08:33:42;101328.97;;;12.58;89.76
61119;BME280;51448;51.660;5.824;2022-10-10T08:36:18;101337.25;;;12.75;89.33
61119;BME280;51448;51.660;5.824;2022-10-10T08:38:47;101324.59;;;12.88;88.75
61119;BME280;51448;51.660;5.824;2022-10-10T08:41:50;101320.59;;;13.03;88.55
61119;BME280;51448;51.660;5.824;2022-10-10T08:44:24;101316.81;;;13.12;87.76
61119;BME280;51448;51.660;5.824;2022-10-10T08:47:01;101328.84;;;13.20;87.90
61119;BME280;51448;51.660;5.824;2022-10-10T08:52:44;101326.03;;;13.55;87.11
61119;BME280;51448;51.660;5.824;2022-10-10T08:55:34;101320.28;;;13.70;87.22
61119;BME280;51448;51.660;5.824;2022-10-10T08:58:15;101322.44;;;13.84;86.46
61119;BME280;51448;51.660;5.824;2022-10-10T09:01:01;101330.06;;;13.93;85.06
61119;BME280;51448;51.660;5.824;2022-10-10T09:03:41;101321.78;;;14.02;84.69
61119;BME280;51448;51.660;5.824;2022-10-10T09:06:49;101326.81;;;14.10;84.22
61119;BME280;51448;51.660;5.824;2022-10-10T09:15:30;101325.88;;;14.38;84.09
61119;BME280;51448;51.660;5.824;2022-10-10T09:18:26;101327.13;;;14.51;84.34
61119;BME280;51448;51.660;5.824;2022-10-10T09:21:24;101336.53;;;14.60;83.66
61119;BME280;51448;51.660;5.824;2022-10-10T09:24:04;101344.97;;;14.71;82.89
61119;BME280;51448;51.660;5.824;2022-10-10T09:26:39;101335.63;;;14.84;82.78
61119;BME280;51448;51.660;5.824;2022-10-10T09:30:06;101343.06;;;14.98;82.28
61119;BME280;51448;51.660;5.824;2022-10-10T09:32:38;101352.28;;;15.12;81.89
61119;BME280;51448;51.660;5.824;2022-10-10T09:35:18;101345.75;;;15.20;81.59
61119;BME280;51448;51.660;5.824;2022-10-10T09:38:04;101344.56;;;15.27;81.50
61119;BME280;51448;51.660;5.824;2022-10-10T09:40:49;101344.22;;;15.37;80.90
61119;BME280;51448;51.660;5.824;2022-10-10T09:43:22;101342.13;;;15.45;80.65
61119;BME280;51448;51.660;5.824;2022-10-10T09:45:53;101347.16;;;15.51;80.65
61119;BME280;51448;51.660;5.824;2022-10-10T09:48:31;101349.56;;;15.57;80.03
61119;BME280;51448;51.660;5.824;2022-10-10T09:51:13;101352.09;;;15.60;80.25
61119;BME280;51448;51.660;5.824;2022-10-10T09:53:44;101355.47;;;15.64;80.27
61119;BME280;51448;51.660;5.824;2022-10-10T09:56:37;101355.06;;;15.75;80.57
61119;BME280;51448;51.660;5.824;2022-10-10T09:59:41;101362.72;;;15.82;80.43
61119;BME280;51448;51.660;5.824;2022-10-10T10:02:22;101374.47;;;15.97;80.27
61119;BME280;51448;51.660;5.824;2022-10-10T10:04:53;101369.44;;;16.12;79.81
61119;BME280;51448;51.660;5.824;2022-10-10T10:07:27;101371.66;;;16.22;78.96
61119;BME280;51448;51.660;5.824;2022-10-10T10:10:01;101373.94;;;16.30;79.05
61119;BME280;51448;51.660;5.824;2022-10-10T10:12:40;101370.13;;;16.37;78.71
61119;BME280;51448;51.660;5.824;2022-10-10T10:15:16;101373.28;;;16.45;78.38
61119;BME280;51448;51.660;5.824;2022-10-10T10:17:44;101361.47;;;16.53;78.36
61119;BME280;51448;51.660;5.824;2022-10-10T10:20:32;101361.97;;;16.61;78.14
61119;BME280;51448;51.660;5.824;2022-10-10T10:23:02;101368.88;;;16.65;78.33
61119;BME280;51448;51.660;5.824;2022-10-10T10:25:35;101368.75;;;16.68;77.12
61119;BME280;51448;51.660;5.824;2022-10-10T10:30:38;101361.59;;;16.70;76.95
61119;BME280;51448;51.660;5.824;2022-10-10T10:41:55;101369.03;;;16.82;76.35
61119;BME280;51448;51.660;5.824;2022-10-10T10:44:40;101372.31;;;16.87;76.49
61119;BME280;51448;51.660;5.824;2022-10-10T10:53:39;101375.00;;;17.06;76.20
61119;BME280;51448;51.660;5.824;2022-10-10T10:56:58;101367.53;;;17.15;76.09
61119;BME280;51448;51.660;5.824;2022-10-10T10:59:35;101379.59;;;17.22;75.61
61119;BME280;51448;51.660;5.824;2022-10-10T11:05:34;101370.00;;;17.56;75.45
61119;BME280;51448;51.660;5.824;2022-10-10T11:08:22;101389.72;;;17.69;74.52
61119;BME280;51448;51.660;5.824;2022-10-10T11:19:28;101401.78;;;18.13;72.91
61119;BME280;51448;51.660;5.824;2022-10-10T11:22:06;101402.44;;;18.18;72.48
61119;BME280;51448;51.660;5.824;2022-10-10T11:24:44;101406.91;;;18.17;72.43
61119;BME280;51448;51.660;5.824;2022-10-10T11:27:33;101406.19;;;18.14;72.06
61119;BME280;51448;51.660;5.824;2022-10-10T11:32:46;101402.66;;;18.13;71.82
61119;BME280;51448;51.660;5.824;2022-10-10T11:38:46;101402.19;;;18.22;71.49
61119;BME280;51448;51.660;5.824;2022-10-10T11:41:57;101399.28;;;18.27;70.50
61119;BME280;51448;51.660;5.824;2022-10-10T11:44:38;101405.31;;;18.30;70.78
61119;BME280;51448;51.660;5.824;2022-10-10T11:47:36;101406.63;;;18.39;71.00
61119;BME280;51448;51.660;5.824;2022-10-10T11:50:22;101406.16;;;18.48;70.88
61119;BME280;51448;51.660;5.824;2022-10-10T11:56:41;101403.25;;;18.70;69.89
61119;BME280;51448;51.660;5.824;2022-10-10T11:59:16;101403.25;;;18.70;69.53
61119;BME280;51448;51.660;5.824;2022-10-10T12:01:51;101395.94;;;18.74;69.71
61119;BME280;51448;51.660;5.824;2022-10-10T12:04:37;101401.75;;;18.82;69.11
61119;BME280;51448;51.660;5.824;2022-10-10T12:07:12;101396.00;;;18.90;69.03
61119;BME280;51448;51.660;5.824;2022-10-10T12:09:46;101395.53;;;18.99;69.30
61119;BME280;51448;51.660;5.824;2022-10-10T12:12:42;101397.59;;;19.10;68.93
61119;BME280;51448;51.660;5.824;2022-10-10T12:15:27;101402.31;;;19.21;68.52
61119;BME280;51448;51.660;5.824;2022-10-10T12:18:01;101403.28;;;19.20;68.33
61119;BME280;51448;51.660;5.824;2022-10-10T12:20:33;101415.84;;;19.18;67.95
61119;BME280;51448;51.660;5.824;2022-10-10T12:23:25;101408.78;;;19.17;67.89
61119;BME280;51448;51.660;5.824;2022-10-10T12:25:57;101411.50;;;19.15;67.88
61119;BME280;51448;51.660;5.824;2022-10-10T12:28:34;101401.63;;;19.17;67.96
61119;BME280;51448;51.660;5.824;2022-10-10T12:31:41;101409.41;;;19.22;67.77
61119;BME280;51448;51.660;5.824;2022-10-10T12:34:13;101410.06;;;19.25;67.83
61119;BME280;51448;51.660;5.824;2022-10-10T12:36:53;101413.94;;;19.36;67.65
61119;BME280;51448;51.660;5.824;2022-10-10T12:39:30;101410.50;;;19.34;68.05
61119;BME280;51448;51.660;5.824;2022-10-10T12:41:58;101420.50;;;19.30;67.34
61119;BME280;51448;51.660;5.824;2022-10-10T12:44:43;101418.94;;;19.26;66.83
61119;BME280;51448;51.660;5.824;2022-10-10T12:49:57;101424.69;;;19.18;67.37
61119;BME280;51448;51.660;5.824;2022-10-10T12:52:47;101422.88;;;19.19;67.75
61119;BME280;51448;51.660;5.824;2022-10-10T12:55:28;101424.69;;;19.18;67.80
61119;BME280;51448;51.660;5.824;2022-10-10T12:58:01;101425.63;;;19.17;68.09
61119;BME280;51448;51.660;5.824;2022-10-10T13:00:43;101423.91;;;19.16;67.73
61119;BME280;51448;51.660;5.824;2022-10-10T13:03:35;101428.63;;;19.11;67.75
61119;BME280;51448;51.660;5.824;2022-10-10T13:09:20;101437.06;;;19.03;68.21
61119;BME280;51448;51.660;5.824;2022-10-10T13:14:35;101442.28;;;18.89;68.64
61119;BME280;51448;51.660;5.824;2022-10-10T13:19:54;101453.16;;;18.84;69.03
61119;BME280;51448;51.660;5.824;2022-10-10T13:22:24;101454.25;;;18.80;69.17
61119;BME280;51448;51.660;5.824;2022-10-10T13:24:53;101456.13;;;18.78;69.07
61119;BME280;51448;51.660;5.824;2022-10-10T13:27:24;101449.41;;;18.71;69.26
61119;BME280;51448;51.660;5.824;2022-10-10T13:29:54;101457.72;;;18.65;69.64
61119;BME280;51448;51.660;5.824;2022-10-10T13:32:27;101463.03;;;18.65;69.82
61119;BME280;51448;51.660;5.824;2022-10-10T13:35:05;101463.44;;;18.57;69.98
61119;BME280;51448;51.660;5.824;2022-10-10T13:37:40;101470.03;;;18.50;70.15
61119;BME280;51448;51.660;5.824;2022-10-10T13:40:14;101476.59;;;18.43;70.70
61119;BME280;51448;51.660;5.824;2022-10-10T13:42:46;101478.78;;;18.35;70.93
61119;BME280;51448;51.660;5.824;2022-10-10T14:01:41;101524.53;;;17.68;74.11
61119;BME280;51448;51.660;5.824;2022-10-10T14:04:31;101525.69;;;17.63;74.73
61119;BME280;51448;51.660;5.824;2022-10-10T14:07:10;101534.81;;;17.57;nan
61119;BME280;51448;51.660;5.824;2022-10-10T14:09:50;101533.38;;;17.50;75.13
61119;BME280;51448;51.660;5.824;2022-10-10T14:12:34;101523.94;;;17.43;75.28
61119;BME280;51448;51.660;5.824;2022-10-10T14:18:24;101543.91;;;17.33;75.68
61119;BME280;51448;51.660;5.824;2022-10-10T14:20:52;101545.06;;;17.27;75.74
61119;BME280;51448;51.660;5.824;2022-10-10T14:23:20;101548.78;;;17.23;75.83
61119;BME280;51448;51.660;5.824;2022-10-10T14:25:48;101559.59;;;17.18;75.86
61119;BME280;51448;51.660;5.824;2022-10-10T14:28:18;101563.34;;;17.14;76.52
61119;BME280;51448;51.660;5.824;2022-10-10T14:30:49;101566.34;;;17.06;76.95
61119;BME280;51448;51.660;5.824;2022-10-10T14:33:19;101571.94;;;17.00;77.55
61119;BME280;51448;51.660;5.824;2022-10-10T14:35:48;101577.63;;;16.91;77.91
61119;BME280;51448;51.660;5.824;2022-10-10T14:38:17;101580.59;;;16.83;78.35
61119;BME280;51448;51.660;5.824;2022-10-10T14:40:47;101585.28;;;16.77;78.73
61119;BME280;51448;51.660;5.824;2022-10-10T14:43:17;101586.47;;;16.69;78.85
61119;BME280;51448;51.660;5.824;2022-10-10T14:45:48;101589.41;;;16.63;78.85
61119;BME280;51448;51.660;5.824;2022-10-10T14:48:17;101599.38;;;16.57;79.24
61119;BME280;51448;51.660;5.824;2022-10-10T14:50:46;101604.09;;;16.50;79.60
61119;BME280;51448;51.660;5.824;2022-10-10T14:53:15;101608.84;;;16.42;79.64
61119;BME280;51448;51.660;5.824;2022-10-10T14:55:43;101614.34;;;16.37;79.99
61119;BME280;51448;51.660;5.824;2022-10-10T14:58:19;101619.84;;;16.33;80.50
61119;BME280;51448;51.660;5.824;2022-10-10T15:00:49;101626.34;;;16.24;80.82
61119;BME280;51448;51.660;5.824;2022-10-10T15:03:18;101625.78;;;16.16;81.54
61119;BME280;51448;51.660;5.824;2022-10-10T15:05:46;101635.03;;;16.05;82.52
61119;BME280;51448;51.660;5.824;2022-10-10T15:08:16;101646.09;;;15.93;83.13
61119;BME280;51448;51.660;5.824;2022-10-10T15:10:45;101649.28;;;15.79;83.97
61119;BME280;51448;51.660;5.824;2022-10-10T15:13:14;101646.97;;;15.68;84.57
61119;BME280;51448;51.660;5.824;2022-10-10T15:15:42;101653.63;;;15.57;85.41
61119;BME280;51448;51.660;5.824;2022-10-10T15:18:11;101675.13;;;15.47;86.05